Time;durP1;ratioP1;P1;durP2;ratioP2;P2;SDS_P1;SDS_P2;PMS_P1;PMS_P2;Temp;Humidity;BMP_temperature;BMP_pressure;BME280_temperature;BME280_humidity;BME280_pressure;Samples;Min_cycle;Max_cycle;Signal;HPM_P1;HPM_P2
2022/05/29 00:02:26;;;;;;;387.27;374.50;;;6.40;99.90;;;;;;5055542;28;20451;-82
2022/05/29 00:04:53;;;;;;;391.83;378.30;;;6.20;99.90;;;;;;5057344;28;20450;-82
2022/05/29 00:07:20;;;;;;;437.77;422.37;;;6.10;99.90;;;;;;5058434;28;20483;-82
2022/05/29 00:09:51;;;;;;;447.57;431.70;;;6.10;99.90;;;;;;5057598;28;20509;-83
2022/05/29 00:12:20;;;;;;;529.87;509.93;;;6.00;99.90;;;;;;5058602;28;20466;-81
2022/05/29 00:14:48;;;;;;;496.13;477.87;;;6.00;99.90;;;;;;5058469;28;20447;-80
2022/05/29 00:17:16;;;;;;;507.93;488.47;;;5.90;99.90;;;;;;5057982;28;20897;-81
2022/05/29 00:19:43;;;;;;;531.13;510.93;;;6.00;99.90;;;;;;5056754;28;20838;-81
2022/05/29 00:22:12;;;;;;;528.47;507.67;;;5.80;99.90;;;;;;5057965;28;20462;-85
2022/05/29 00:24:40;;;;;;;658.87;629.90;;;5.80;99.90;;;;;;5057626;28;20451;-82
2022/05/29 00:27:11;;;;;;;638.57;610.97;;;5.80;99.90;;;;;;5057089;28;20479;-82
2022/05/29 00:29:38;;;;;;;722.70;687.90;;;5.70;99.90;;;;;;5057117;28;20451;-82
2022/05/29 00:32:05;;;;;;;724.50;688.93;;;5.70;99.90;;;;;;5058130;28;20462;-83
2022/05/29 00:34:32;;;;;;;735.60;697.73;;;5.70;99.90;;;;;;5058364;28;20456;-80
2022/05/29 00:36:59;;;;;;;751.37;711.07;;;5.70;99.90;;;;;;5058000;28;20444;-83
2022/05/29 00:39:27;;;;;;;768.87;726.37;;;5.70;99.90;;;;;;5056628;28;20451;-82
2022/05/29 00:41:54;;;;;;;782.13;737.00;;;5.80;99.90;;;;;;5058843;28;20852;-82
2022/05/29 00:44:24;;;;;;;766.63;725.33;;;5.80;99.90;;;;;;5058806;28;20462;-82
2022/05/29 00:46:54;;;;;;;729.47;692.80;;;5.90;99.90;;;;;;5058212;28;20521;-81
2022/05/29 00:49:23;;;;;;;709.80;675.80;;;5.90;99.90;;;;;;5057535;28;20458;-82
2022/05/29 00:51:55;;;;;;;742.43;705.27;;;5.90;99.90;;;;;;5058404;28;20557;-82
2022/05/29 00:54:23;;;;;;;747.73;710.43;;;6.00;99.90;;;;;;5058827;28;20459;-82
2022/05/29 00:56:51;;;;;;;727.70;691.90;;;6.00;99.90;;;;;;5058311;28;20474;-84
2022/05/29 00:59:21;;;;;;;721.30;685.03;;;6.10;99.90;;;;;;5057118;28;20455;-82
2022/05/29 01:01:50;;;;;;;695.73;663.20;;;5.90;99.90;;;;;;5058249;28;20483;-82
2022/05/29 01:04:17;;;;;;;681.33;649.83;;;5.90;99.90;;;;;;5058101;28;20452;-82
2022/05/29 01:06:45;;;;;;;677.50;647.13;;;5.90;99.90;;;;;;5058016;28;20476;-82
2022/05/29 01:09:12;;;;;;;720.57;686.47;;;6.00;99.90;;;;;;5056793;28;20494;-82
2022/05/29 01:11:55;;;;;;;726.73;692.13;;;5.90;99.90;;;;;;5058119;28;20451;-82
2022/05/29 01:14:28;;;;;;;738.57;702.20;;;5.70;99.90;;;;;;5057668;28;20444;-82
2022/05/29 01:17:11;;;;;;;746.03;709.73;;;5.70;99.90;;;;;;5057618;28;20459;-82
2022/05/29 01:19:54;;;;;;;753.87;715.87;;;5.60;99.90;;;;;;5056845;28;20527;-83
2022/05/29 01:22:34;;;;;;;787.03;745.93;;;5.70;99.90;;;;;;5058088;28;20458;-82
2022/05/29 01:25:36;;;;;;;809.23;764.93;;;5.50;99.90;;;;;;5057867;28;20454;-82
2022/05/29 01:28:14;;;;;;;809.00;764.53;;;5.50;99.90;;;;;;5057153;28;20490;-83
2022/05/29 01:30:48;;;;;;;840.73;793.10;;;5.40;99.90;;;;;;5056962;28;20443;-82
2022/05/29 01:33:35;;;;;;;848.70;799.83;;;5.40;99.90;;;;;;5057370;28;20447;-82
2022/05/29 01:36:06;;;;;;;874.63;821.87;;;5.30;99.90;;;;;;5037725;28;20452;-82
2022/05/29 01:38:41;;;;;;;878.97;823.77;;;5.10;99.90;;;;;;5037311;28;20468;-82
2022/05/29 01:41:12;;;;;;;877.30;819.93;;;5.20;99.90;;;;;;5057180;28;20834;-83
2022/05/29 01:43:44;;;;;;;885.23;827.47;;;5.10;99.90;;;;;;5056864;28;22182;-82
2022/05/29 01:46:17;;;;;;;903.83;844.67;;;5.20;99.90;;;;;;5057546;28;20435;-82
2022/05/29 01:48:51;;;;;;;916.70;855.93;;;5.00;99.90;;;;;;5055238;28;20489;-82
2022/05/29 01:51:21;;;;;;;908.53;848.27;;;5.00;99.90;;;;;;5057666;28;20462;-82
2022/05/29 01:53:52;;;;;;;879.93;819.23;;;5.00;99.90;;;;;;5056700;28;20462;-82
2022/05/29 01:56:22;;;;;;;897.63;834.30;;;5.00;99.90;;;;;;5056938;28;20440;-84
2022/05/29 01:58:55;;;;;;;921.80;857.70;;;4.90;99.90;;;;;;5056134;28;20476;-83
2022/05/29 02:01:26;;;;;;;911.90;847.53;;;5.00;99.90;;;;;;5057046;28;20807;-82
2022/05/29 02:03:57;;;;;;;891.17;825.47;;;4.90;99.90;;;;;;5057062;28;20455;-82
2022/05/29 02:06:28;;;;;;;903.53;838.90;;;4.90;99.90;;;;;;5056758;28;20448;-83
2022/05/29 02:08:59;;;;;;;923.40;858.60;;;4.90;99.90;;;;;;5055958;28;20468;-81
2022/05/29 02:11:28;;;;;;;919.87;854.80;;;4.80;99.90;;;;;;5056018;28;20947;-82
2022/05/29 02:14:02;;;;;;;907.13;841.37;;;4.80;99.90;;;;;;5056591;28;20819;-82
2022/05/29 02:16:34;;;;;;;926.37;856.80;;;4.70;99.90;;;;;;5055967;28;20452;-82
2022/05/29 02:19:06;;;;;;;920.67;851.80;;;4.90;99.90;;;;;;5056259;28;20479;-83
2022/05/29 02:21:42;;;;;;;931.30;862.90;;;4.90;99.90;;;;;;5056291;28;20444;-82
2022/05/29 02:24:13;;;;;;;937.53;867.17;;;4.90;99.90;;;;;;5056764;28;20451;-83
2022/05/29 02:26:46;;;;;;;929.00;855.87;;;4.80;99.90;;;;;;5055988;28;20875;-82
2022/05/29 02:29:15;;;;;;;910.93;839.60;;;4.90;99.90;;;;;;5056006;28;20471;-84
2022/05/29 02:31:52;;;;;;;915.43;841.87;;;4.90;99.90;;;;;;5053719;28;20452;-81
2022/05/29 02:34:27;;;;;;;960.33;885.87;;;5.00;99.90;;;;;;5055554;28;20447;-82
2022/05/29 02:36:59;;;;;;;943.93;870.23;;;5.00;99.90;;;;;;5056837;28;20451;-82
2022/05/29 02:39:38;;;;;;;949.50;877.30;;;5.00;99.90;;;;;;5052573;28;20451;-82
2022/05/29 02:42:16;;;;;;;929.10;857.50;;;5.10;99.90;;;;;;5054441;28;20455;-83
2022/05/29 02:44:54;;;;;;;919.53;847.87;;;5.20;99.90;;;;;;5055256;28;20452;-82
2022/05/29 02:47:26;;;;;;;932.97;858.60;;;5.40;99.90;;;;;;5037399;28;20488;-82
2022/05/29 02:50:13;;;;;;;924.60;852.10;;;5.50;99.90;;;;;;5052399;28;20455;-82
2022/05/29 02:52:40;;;;;;;936.03;862.63;;;5.80;99.90;;;;;;5055736;28;20474;-83
2022/05/29 02:55:08;;;;;;;929.70;857.30;;;5.90;99.90;;;;;;5056190;28;20878;-83
2022/05/29 02:57:35;;;;;;;910.17;838.37;;;6.00;99.90;;;;;;5055278;28;20463;-83
2022/05/29 03:00:11;;;;;;;918.30;845.70;;;6.30;99.90;;;;;;5056682;28;20485;-83
2022/05/29 03:02:41;;;;;;;909.00;837.27;;;6.40;99.90;;;;;;5058442;28;20481;-83
2022/05/29 03:05:17;;;;;;;903.93;834.53;;;6.40;99.90;;;;;;5055875;28;20451;-84
2022/05/29 03:07:55;;;;;;;914.37;846.30;;;6.60;99.90;;;;;;5055396;28;20550;-83
2022/05/29 03:10:25;;;;;;;914.97;851.10;;;6.80;99.90;;;;;;5053874;28;20458;-83
2022/05/29 03:13:03;;;;;;;882.83;823.33;;;6.80;99.90;;;;;;5054525;28;20458;-83
2022/05/29 03:15:40;;;;;;;888.30;828.03;;;6.80;99.90;;;;;;5055161;28;20948;-82
2022/05/29 03:18:19;;;;;;;884.33;825.20;;;6.90;99.90;;;;;;5055341;28;20482;-80
2022/05/29 03:20:56;;;;;;;877.93;819.00;;;7.00;99.90;;;;;;5055971;28;20452;-83
2022/05/29 03:23:32;;;;;;;883.70;827.03;;;7.10;99.90;;;;;;5034536;28;20486;-83
2022/05/29 03:26:03;;;;;;;853.97;800.47;;;7.20;99.90;;;;;;5050812;28;20465;-83
2022/05/29 03:28:39;;;;;;;845.40;793.73;;;7.30;99.90;;;;;;5055643;28;20506;-85
2022/05/29 03:31:11;;;;;;;834.00;783.37;;;7.40;99.90;;;;;;5054398;28;20451;-83
2022/05/29 03:33:39;;;;;;;795.70;748.90;;;7.50;99.90;;;;;;5054291;28;20808;-84
2022/05/29 03:36:11;;;;;;;813.80;767.20;;;7.40;99.90;;;;;;5055412;28;20459;-83
2022/05/29 03:38:39;;;;;;;780.13;737.80;;;7.60;99.90;;;;;;5041867;28;20537;-82
2022/05/29 03:41:12;;;;;;;724.80;688.30;;;7.60;99.90;;;;;;5058805;28;20517;-83
2022/05/29 03:43:40;;;;;;;701.50;667.43;;;7.60;99.90;;;;;;5060412;28;20455;-85
2022/05/29 03:46:08;;;;;;;656.27;627.50;;;7.80;99.90;;;;;;5059207;28;20447;-83
2022/05/29 03:48:35;;;;;;;626.13;599.37;;;7.80;99.90;;;;;;5057838;28;20873;-84
2022/05/29 03:51:05;;;;;;;558.03;535.53;;;7.90;99.90;;;;;;5039929;28;20455;-84
2022/05/29 03:53:31;;;;;;;506.97;488.23;;;7.90;99.90;;;;;;5039273;28;20452;-83
2022/05/29 03:55:58;;;;;;;470.13;453.23;;;7.90;99.90;;;;;;5056078;28;20455;-83
2022/05/29 03:58:25;;;;;;;466.37;449.97;;;8.00;99.90;;;;;;5058470;28;20473;-83
2022/05/29 04:00:52;;;;;;;451.50;435.40;;;7.90;99.90;;;;;;5057701;28;20451;-85
2022/05/29 04:03:20;;;;;;;424.13;409.53;;;7.90;99.90;;;;;;5058073;28;20800;-83
2022/05/29 04:05:47;;;;;;;395.60;382.33;;;8.00;99.90;;;;;;5059576;28;20459;-83
2022/05/29 04:13:44;;;;;;;358.13;345.63;;;8.10;99.90;;;;;;5059288;28;20935;-83
2022/05/29 04:16:12;;;;;;;363.17;351.37;;;8.20;99.90;;;;;;5057466;28;20470;-82
2022/05/29 04:18:40;;;;;;;412.37;397.57;;;8.30;99.90;;;;;;5057305;28;20482;-83
2022/05/29 04:21:07;;;;;;;380.27;366.97;;;8.30;99.90;;;;;;5059113;28;20448;-83
2022/05/29 04:23:34;;;;;;;334.20;321.23;;;8.40;99.90;;;;;;5058051;28;20455;-85
2022/05/29 04:26:01;;;;;;;341.77;329.33;;;8.50;99.90;;;;;;5057690;28;20971;-83
2022/05/29 04:28:28;;;;;;;316.20;304.23;;;8.60;99.90;;;;;;5058810;28;20493;-84
2022/05/29 04:30:54;;;;;;;294.20;283.33;;;8.60;99.90;;;;;;5057185;28;20447;-82
2022/05/29 04:33:22;;;;;;;261.87;252.37;;;8.70;99.90;;;;;;5055674;28;20447;-83
2022/05/29 04:35:51;;;;;;;239.33;230.50;;;8.70;99.90;;;;;;5044015;28;20506;-84
2022/05/29 04:38:27;;;;;;;206.97;199.20;;;8.70;99.90;;;;;;5056385;28;21044;-88
2022/05/29 04:40:55;;;;;;;205.33;197.63;;;8.80;99.90;;;;;;5056115;28;20458;-83
2022/05/29 04:43:22;;;;;;;220.10;211.80;;;8.70;99.90;;;;;;5059539;28;20452;-83
2022/05/29 04:45:53;;;;;;;233.83;225.83;;;8.80;99.90;;;;;;5059330;28;20559;-85
2022/05/29 04:48:20;;;;;;;220.77;213.20;;;9.00;99.90;;;;;;5057320;28;20475;-84
2022/05/29 04:50:47;;;;;;;230.60;222.43;;;9.10;99.90;;;;;;5058057;28;20459;-84
2022/05/29 04:53:15;;;;;;;135.70;130.10;;;9.30;99.90;;;;;;5057911;28;20463;-84
2022/05/29 04:55:42;;;;;;;104.27;99.60;;;9.20;99.90;;;;;;5057632;28;20447;-84
2022/05/29 04:58:10;;;;;;;70.07;66.57;;;9.30;99.90;;;;;;5058440;28;20478;-85
2022/05/29 05:00:37;;;;;;;54.50;51.50;;;9.40;99.90;;;;;;5058666;28;20455;-83
2022/05/29 05:03:04;;;;;;;46.77;43.37;;;9.40;99.90;;;;;;5058338;28;20482;-83
2022/05/29 05:05:30;;;;;;;45.93;43.23;;;9.40;99.90;;;;;;5058478;28;20454;-83
2022/05/29 05:07:57;;;;;;;30.50;28.13;;;9.50;99.90;;;;;;5058172;28;20475;-83
2022/05/29 05:10:25;;;;;;;52.20;49.27;;;9.50;99.90;;;;;;5057451;28;20452;-83
2022/05/29 05:12:53;;;;;;;31.87;29.97;;;9.50;99.90;;;;;;5058679;28;20748;-83
2022/05/29 05:15:20;;;;;;;19.83;16.33;;;9.50;99.90;;;;;;5057595;28;20964;-83
2022/05/29 05:17:48;;;;;;;16.83;13.37;;;9.40;99.90;;;;;;5081844;22;20912;-84
2022/05/29 05:20:15;;;;;;;17.40;15.80;;;9.60;99.90;;;;;;5058085;28;20554;-86
2022/05/29 05:22:42;;;;;;;23.77;22.17;;;9.40;99.90;;;;;;5058658;28;20463;-83
2022/05/29 05:25:16;;;;;;;23.60;22.10;;;9.60;99.90;;;;;;5058346;28;20455;-82
2022/05/29 05:27:44;;;;;;;16.27;14.80;;;9.80;99.90;;;;;;5061569;28;20566;-85
2022/05/29 05:30:12;;;;;;;11.13;10.00;;;9.80;99.90;;;;;;5078993;28;20454;-85
2022/05/29 05:32:39;;;;;;;11.90;8.17;;;9.90;99.90;;;;;;5078575;28;20451;-85
2022/05/29 05:35:07;;;;;;;8.90;7.47;;;10.00;99.10;;;;;;5077750;28;20450;-85
2022/05/29 05:37:39;;;;;;;12.30;6.87;;;10.00;98.30;;;;;;5077293;28;21027;-85
2022/05/29 05:40:09;;;;;;;21.13;7.50;;;10.10;97.60;;;;;;5077282;28;20454;-86
2022/05/29 05:42:39;;;;;;;16.40;7.93;;;10.10;97.50;;;;;;5077019;28;20447;-87
2022/05/29 05:45:10;;;;;;;9.93;5.60;;;10.20;96.30;;;;;;5065279;28;20936;-84
2022/05/29 05:47:40;;;;;;;15.47;5.80;;;10.40;94.50;;;;;;5056787;28;20479;-84
2022/05/29 05:50:34;;;;;;;12.50;5.70;;;10.30;93.00;;;;;;5063311;28;20447;-84
2022/05/29 05:53:01;;;;;;;14.33;4.60;;;10.50;93.60;;;;;;5079638;28;20442;-84
2022/05/29 05:55:30;;;;;;;8.53;5.13;;;10.40;93.00;;;;;;5080204;28;20458;-87
2022/05/29 05:58:12;;;;;;;11.60;6.70;;;10.40;93.10;;;;;;5079141;28;20528;-83
2022/05/29 06:00:59;;;;;;;13.97;6.90;;;10.50;93.60;;;;;;5074518;28;20810;-86
2022/05/29 06:03:44;;;;;;;14.00;5.20;;;10.50;92.00;;;;;;5078192;28;20452;-85
2022/05/29 06:06:11;;;;;;;11.60;4.60;;;10.70;91.30;;;;;;5079636;28;20975;-86
2022/05/29 06:08:46;;;;;;;10.77;4.13;;;10.70;91.20;;;;;;5076237;28;20557;-85
2022/05/29 06:11:12;;;;;;;9.17;5.30;;;10.90;90.80;;;;;;5073622;28;20450;-86
2022/05/29 06:13:42;;;;;;;11.73;4.87;;;11.00;89.50;;;;;;5079432;28;20451;-85
2022/05/29 06:19:41;;;;;;;9.20;3.60;;;11.10;89.50;;;;;;5033143;28;20545;-86
2022/05/29 06:22:12;;;;;;;7.20;4.13;;;11.10;89.00;;;;;;5076655;28;20454;-86
2022/05/29 06:24:42;;;;;;;9.47;3.20;;;11.30;88.60;;;;;;5081078;28;20447;-86
2022/05/29 06:27:15;;;;;;;8.80;3.20;;;11.20;83.30;;;;;;5083081;28;20534;-86
2022/05/29 06:29:54;;;;;;;8.67;3.97;;;11.30;85.80;;;;;;5078971;28;20470;-87
2022/05/29 06:32:24;;;;;;;9.40;3.70;;;11.50;86.90;;;;;;5083586;28;20545;-86
2022/05/29 06:34:59;;;;;;;6.80;3.80;;;11.80;88.40;;;;;;5086817;28;20480;-86
2022/05/29 06:37:29;;;;;;;11.20;3.73;;;11.80;82.10;;;;;;5090606;28;20422;-88
2022/05/29 06:40:13;;;;;;;6.77;3.07;;;11.70;80.70;;;;;;5095662;28;20438;-88
2022/05/29 06:42:51;;;;;;;9.63;3.80;;;11.70;79.30;;;;;;5097742;28;20455;-88
2022/05/29 06:45:18;;;;;;;11.67;3.47;;;11.70;81.40;;;;;;5094138;28;20438;-89
2022/05/29 06:48:06;;;;;;;13.17;4.77;;;11.40;80.20;;;;;;5092531;28;20538;-88
2022/05/29 06:53:36;;;;;;;10.50;3.67;;;11.20;84.00;;;;;;5060730;28;20450;-88
2022/05/29 06:56:12;;;;;;;6.70;4.37;;;11.10;82.90;;;;;;5083089;28;20454;-87
2022/05/29 06:59:06;;;;;;;16.93;4.97;;;11.20;85.70;;;;;;5060397;28;20463;-87
2022/05/29 07:07:30;;;;;;;7.83;3.07;;;11.20;87.80;;;;;;5077828;28;20442;-87
2022/05/29 07:10:51;;;;;;;10.43;3.20;;;11.20;83.60;;;;;;5075533;28;20462;-86
2022/05/29 07:13:18;;;;;;;9.10;4.03;;;11.20;82.10;;;;;;5075295;28;20480;-86
2022/05/29 07:15:53;;;;;;;6.30;3.40;;;11.40;81.70;;;;;;5077373;28;20454;-86
2022/05/29 07:18:32;;;;;;;5.20;2.17;;;11.50;81.50;;;;;;5077311;28;20501;-85
2022/05/29 07:21:24;;;;;;;6.63;2.93;;;11.60;79.40;;;;;;5075828;28;20462;-86
2022/05/29 07:24:01;;;;;;;6.33;2.93;;;11.60;80.70;;;;;;5076733;28;20447;-86
2022/05/29 07:26:39;;;;;;;18.13;3.33;;;11.60;81.90;;;;;;5075690;28;20552;-84
2022/05/29 07:35:16;;;;;;;5.80;3.30;;;12.00;78.80;;;;;;5060012;28;20436;-88
2022/05/29 07:37:45;;;;;;;7.40;2.70;;;12.30;79.00;;;;;;5070295;22;20487;-88
2022/05/29 07:40:12;;;;;;;7.77;2.77;;;12.50;73.90;;;;;;5053575;28;20471;-87
2022/05/29 07:48:54;;;;;;;7.90;3.07;;;12.70;69.80;;;;;;5042263;28;20495;-88
2022/05/29 07:51:20;;;;;;;5.80;2.80;;;12.90;69.80;;;;;;5110584;22;21012;-82
2022/05/29 07:53:48;;;;;;;9.60;3.17;;;13.10;67.00;;;;;;5054318;28;20452;-80
2022/05/29 07:56:16;;;;;;;8.93;2.83;;;13.20;68.60;;;;;;5052832;28;20447;-80
2022/05/29 07:58:43;;;;;;;6.83;2.97;;;13.40;64.10;;;;;;5052072;28;20475;-81
2022/05/29 08:01:11;;;;;;;7.50;3.03;;;13.60;60.00;;;;;;5053394;28;20475;-79
2022/05/29 08:03:37;;;;;;;11.43;2.70;;;13.90;57.70;;;;;;5053702;28;20932;-80
2022/05/29 08:06:04;;;;;;;10.83;3.73;;;13.80;61.70;;;;;;5053417;28;20451;-79
2022/05/29 08:08:32;;;;;;;10.47;2.77;;;14.00;57.00;;;;;;5052124;28;20458;-80
2022/05/29 08:11:01;;;;;;;8.83;3.27;;;14.00;58.00;;;;;;5053210;28;20471;-80
2022/05/29 08:13:28;;;;;;;12.50;6.10;;;14.00;61.00;;;;;;5054067;28;20457;-80
2022/05/29 08:15:55;;;;;;;8.73;3.30;;;14.30;57.40;;;;;;5053813;28;20455;-80
2022/05/29 08:18:22;;;;;;;4.87;2.37;;;14.40;56.70;;;;;;5052377;28;20659;-81
2022/05/29 08:20:50;;;;;;;7.43;2.53;;;14.20;55.20;;;;;;5051160;28;20478;-80
2022/05/29 08:23:18;;;;;;;7.47;2.33;;;14.30;55.10;;;;;;5052706;28;20455;-81
2022/05/29 08:31:23;;;;;;;11.73;4.77;;;15.00;48.80;;;;;;5048981;28;20525;-82
2022/05/29 08:33:50;;;;;;;11.47;5.10;;;15.70;43.90;;;;;;5056434;28;20456;-81
2022/05/29 08:36:22;;;;;;;11.60;5.53;;;15.80;40.40;;;;;;5057469;28;20448;-81
2022/05/29 08:38:52;;;;;;;12.30;5.60;;;15.30;42.90;;;;;;5055453;28;20547;-80
2022/05/29 08:41:23;;;;;;;6.30;2.57;;;15.30;42.10;;;;;;5053989;28;20845;-81
2022/05/29 08:44:01;;;;;;;7.03;2.60;;;15.20;39.90;;;;;;5057168;28;20452;-81
2022/05/29 08:46:33;;;;;;;4.80;2.40;;;15.10;39.80;;;;;;5056207;28;20447;-81
2022/05/29 08:49:00;;;;;;;6.97;2.63;;;15.10;40.60;;;;;;5054561;28;21017;-81
2022/05/29 08:51:44;;;;;;;10.53;3.00;;;14.60;44.20;;;;;;5055709;28;20562;-81
2022/05/29 08:54:14;;;;;;;6.63;2.20;;;14.40;47.90;;;;;;5053111;28;20448;-81
2022/05/29 08:56:46;;;;;;;7.00;2.60;;;14.10;47.70;;;;;;5055711;28;20880;-80
2022/05/29 08:59:21;;;;;;;10.23;2.63;;;14.30;46.70;;;;;;5053593;28;20909;-80
2022/05/29 09:01:57;;;;;;;9.00;2.60;;;15.00;47.20;;;;;;5055648;28;20502;-80
2022/05/29 09:04:31;;;;;;;10.73;2.33;;;15.60;45.30;;;;;;5054150;28;20458;-82
2022/05/29 09:07:00;;;;;;;8.93;2.37;;;15.90;35.60;;;;;;5054228;28;20463;-80
2022/05/29 09:09:34;;;;;;;5.17;1.70;;;17.30;32.80;;;;;;5053383;28;20492;-80
2022/05/29 09:12:05;;;;;;;7.50;2.07;;;18.40;25.90;;;;;;5055372;28;20457;-81
2022/05/29 09:14:42;;;;;;;4.80;1.90;;;20.00;19.70;;;;;;5054884;28;20450;-80
2022/05/29 09:17:14;;;;;;;8.10;1.83;;;19.50;18.90;;;;;;5055859;28;20538;-81
2022/05/29 09:19:47;;;;;;;6.27;1.50;;;18.70;18.80;;;;;;5053745;28;20503;-81
2022/05/29 09:22:19;;;;;;;9.90;2.27;;;17.60;19.50;;;;;;5054366;28;20451;-80
2022/05/29 09:24:55;;;;;;;8.80;2.50;;;16.00;29.30;;;;;;5054116;28;20831;-81
2022/05/29 09:27:23;;;;;;;5.38;1.90;;;13.50;91.60;;;;;;5053899;28;20534;-82
2022/05/29 09:29:52;;;;;;;6.33;1.80;;;12.20;92.10;;;;;;5053902;28;20270;-82
2022/05/29 09:32:22;;;;;;;4.90;1.50;;;11.30;99.90;;;;;;5056254;28;20451;-81
2022/05/29 09:35:00;;;;;;;5.70;2.30;;;10.80;99.90;;;;;;5054098;28;20456;-80
2022/05/29 09:37:38;;;;;;;11.10;10.27;;;11.00;99.90;;;;;;5051766;28;20542;-82
2022/05/29 09:40:11;;;;;;;9.83;3.10;;;11.30;99.90;;;;;;5053180;28;20999;-82
2022/05/29 09:42:40;;;;;;;4.27;2.70;;;11.20;99.90;;;;;;5049915;28;20455;-80
2022/05/29 09:45:14;;;;;;;6.57;3.17;;;11.20;99.90;;;;;;5051725;28;20455;-79
2022/05/29 09:50:39;;;;;;;54.87;52.67;;;11.20;99.90;;;;;;5034041;28;21065;-80
2022/05/29 09:53:11;;;;;;;32.67;31.10;;;11.40;99.90;;;;;;5052071;28;20457;-80
2022/05/29 09:55:39;;;;;;;15.07;7.90;;;11.50;99.90;;;;;;5053012;28;20448;-79
2022/05/29 09:58:10;;;;;;;7.50;5.33;;;11.40;99.90;;;;;;5050488;28;21034;-77
2022/05/29 10:00:42;;;;;;;275.50;266.40;;;11.60;99.90;;;;;;5052250;28;20979;-80
2022/05/29 10:03:28;;;;;;;639.00;611.23;;;11.90;99.90;;;;;;5052561;28;20451;-80
2022/05/29 10:06:10;;;;;;;128.10;123.67;;;12.80;99.90;;;;;;5050782;28;20452;-81
2022/05/29 10:08:39;;;;;;;187.27;181.17;;;13.10;99.90;;;;;;5052784;28;20795;-80
2022/05/29 10:11:23;;;;;;;170.47;164.53;;;13.60;99.90;;;;;;5053102;28;20474;-80
2022/05/29 10:13:51;;;;;;;13.33;12.10;;;13.90;99.90;;;;;;5051721;28;20969;-81
2022/05/29 10:16:35;;;;;;;6.70;3.67;;;13.80;98.10;;;;;;5054044;28;20443;-80
2022/05/29 10:19:02;;;;;;;6.30;3.40;;;13.50;80.10;;;;;;5052673;28;20460;-83
2022/05/29 10:21:31;;;;;;;10.27;4.30;;;13.40;91.20;;;;;;5051518;28;20471;-80
2022/05/29 10:24:13;;;;;;;6.70;3.50;;;13.20;93.40;;;;;;5053658;28;20451;-80
2022/05/29 10:26:41;;;;;;;8.77;4.77;;;13.00;94.70;;;;;;5046481;28;20453;-81
2022/05/29 10:29:18;;;;;;;10.07;4.10;;;12.50;99.90;;;;;;5050406;28;20458;-79
2022/05/29 10:31:50;;;;;;;18.23;8.40;;;12.20;99.90;;;;;;5049106;28;21014;-78
2022/05/29 10:34:26;;;;;;;14.83;13.83;;;12.10;99.90;;;;;;5050192;28;20459;-78
2022/05/29 10:36:53;;;;;;;37.03;34.87;;;12.30;99.90;;;;;;5051195;28;20451;-80
2022/05/29 10:39:22;;;;;;;242.10;234.37;;;12.40;99.90;;;;;;5050917;28;20471;-79
2022/05/29 10:41:49;;;;;;;196.30;190.23;;;12.80;99.90;;;;;;5050158;28;20474;-81
2022/05/29 10:44:40;;;;;;;131.07;126.67;;;13.30;99.90;;;;;;5050716;28;20546;-79
2022/05/29 10:47:23;;;;;;;60.27;57.83;;;13.80;99.20;;;;;;5051450;28;20452;-79
2022/05/29 10:50:01;;;;;;;35.87;33.97;;;14.20;93.10;;;;;;5047699;28;20458;-79
2022/05/29 10:52:56;;;;;;;6.37;3.37;;;14.80;92.10;;;;;;5052236;28;20457;-79
2022/05/29 10:55:43;;;;;;;7.57;2.67;;;15.50;77.40;;;;;;5049940;28;20452;-79
2022/05/29 10:58:43;;;;;;;5.90;2.03;;;16.40;66.80;;;;;;5032526;28;20453;-80
2022/05/29 11:04:41;;;;;;;6.43;2.47;;;16.80;60.50;;;;;;5031160;28;20443;-79
2022/05/29 11:07:31;;;;;;;6.37;3.57;;;16.80;60.00;;;;;;5021697;28;20466;-81
2022/05/29 11:10:20;;;;;;;8.53;3.50;;;16.60;57.10;;;;;;5051966;28;20844;-81
2022/05/29 11:13:01;;;;;;;10.83;3.50;;;16.50;59.30;;;;;;5050658;28;20451;-80
2022/05/29 11:15:37;;;;;;;5.40;2.67;;;17.00;52.40;;;;;;5052772;28;20848;-79
2022/05/29 11:18:31;;;;;;;7.17;2.40;;;17.30;53.20;;;;;;5051889;28;20454;-80
2022/05/29 11:21:10;;;;;;;7.13;2.17;;;16.60;50.00;;;;;;5049417;28;20475;-79
2022/05/29 11:24:03;;;;;;;6.70;2.00;;;17.00;42.40;;;;;;5051660;28;20973;-78
2022/05/29 11:26:46;;;;;;;4.20;1.40;;;17.20;43.60;;;;;;5049907;28;20449;-79
2022/05/29 11:29:31;;;;;;;4.10;1.20;;;16.50;50.00;;;;;;5050640;28;20452;-79
2022/05/29 11:32:05;;;;;;;4.53;1.43;;;15.60;51.30;;;;;;5051399;28;21001;-79
2022/05/29 11:34:41;;;;;;;3.53;0.90;;;15.80;55.50;;;;;;5049433;28;20846;-79
2022/05/29 11:37:43;;;;;;;5.90;1.33;;;16.10;49.60;;;;;;5051924;28;20459;-80
2022/05/29 11:40:17;;;;;;;3.60;1.00;;;17.00;44.10;;;;;;5042475;28;20475;-80
2022/05/29 11:42:50;;;;;;;4.03;0.90;;;17.60;42.20;;;;;;5046171;28;20463;-82
2022/05/29 11:45:23;;;;;;;5.53;1.27;;;17.80;33.20;;;;;;5049941;28;20456;-80
2022/05/29 11:53:34;;;;;;;3.77;1.00;;;18.00;31.80;;;;;;5051934;28;20449;-80
2022/05/29 11:56:07;;;;;;;3.87;0.93;;;18.60;32.40;;;;;;5045946;28;20484;-80
2022/05/29 11:58:41;;;;;;;3.90;0.90;;;19.00;25.80;;;;;;5050841;28;20451;-80
2022/05/29 12:01:12;;;;;;;5.30;1.30;;;19.70;27.80;;;;;;5056165;28;20483;-82
2022/05/29 12:03:45;;;;;;;4.40;1.20;;;20.40;17.70;;;;;;5056305;28;20475;-81
2022/05/29 12:06:15;;;;;;;4.17;1.00;;;21.10;24.70;;;;;;5054206;28;20951;-83
2022/05/29 12:08:53;;;;;;;4.30;1.13;;;21.60;17.20;;;;;;5057553;28;20834;-82
2022/05/29 12:11:34;;;;;;;4.87;1.17;;;21.10;20.50;;;;;;5056880;28;20470;-81
2022/05/29 12:14:05;;;;;;;4.63;1.43;;;20.30;15.60;;;;;;5057272;28;20461;-80
2022/05/29 12:16:35;;;;;;;4.33;1.07;;;19.80;16.40;;;;;;5057253;28;20961;-80
2022/05/29 12:19:09;;;;;;;5.30;1.40;;;19.20;19.20;;;;;;5056115;28;20457;-80
2022/05/29 12:21:42;;;;;;;5.73;1.40;;;18.40;23.50;;;;;;5056480;28;20491;-80
2022/05/29 12:24:14;;;;;;;4.70;1.23;;;17.90;25.50;;;;;;5056117;28;20969;-80
2022/05/29 12:26:47;;;;;;;4.77;1.10;;;17.60;30.10;;;;;;5056026;28;20449;-81
2022/05/29 12:29:20;;;;;;;3.90;0.80;;;16.90;30.20;;;;;;5055216;28;20460;-79
2022/05/29 12:31:51;;;;;;;3.50;0.67;;;16.40;30.50;;;;;;5055653;28;20472;-82
2022/05/29 12:34:22;;;;;;;3.70;0.80;;;15.30;34.70;;;;;;5056234;28;20475;-80
2022/05/29 12:37:27;;;;;;;3.70;0.80;;;14.90;42.70;;;;;;5055726;28;20455;-79
2022/05/29 12:40:11;;;;;;;4.57;0.80;;;14.30;46.90;;;;;;5042948;28;20991;-80
2022/05/29 12:43:04;;;;;;;3.80;0.90;;;14.60;44.20;;;;;;5055492;28;20837;-80
2022/05/29 12:45:55;;;;;;;3.80;0.90;;;14.70;43.20;;;;;;5052893;28;20486;-80
2022/05/29 12:48:53;;;;;;;4.10;0.97;;;16.30;41.00;;;;;;5054861;28;20677;-80
2022/05/29 12:51:35;;;;;;;3.77;1.00;;;17.90;34.80;;;;;;5056330;28;20480;-80
2022/05/29 12:54:30;;;;;;;3.80;0.87;;;19.30;24.40;;;;;;5056357;28;20455;-80
2022/05/29 12:57:33;;;;;;;3.80;0.80;;;19.30;20.30;;;;;;5057524;28;20487;-80
2022/05/29 13:00:23;;;;;;;4.63;0.80;;;19.80;20.30;;;;;;5056581;28;20490;-80
2022/05/29 13:03:44;;;;;;;5.30;1.03;;;20.10;22.40;;;;;;5056956;28;20458;-80
2022/05/29 13:06:29;;;;;;;4.00;0.90;;;20.00;19.70;;;;;;5054411;28;20457;-80
2022/05/29 13:09:15;;;;;;;4.90;1.13;;;19.90;19.60;;;;;;5054988;28;20465;-80
2022/05/29 13:11:50;;;;;;;4.57;1.03;;;20.60;20.10;;;;;;5055978;28;20473;-80
2022/05/29 13:14:20;;;;;;;3.60;0.70;;;20.40;23.60;;;;;;5056485;28;20488;-81
2022/05/29 13:17:03;;;;;;;4.67;0.90;;;20.60;15.20;;;;;;5056692;28;20453;-80
2022/05/29 13:19:55;;;;;;;3.97;1.00;;;21.50;11.90;;;;;;5055484;28;20456;-80
2022/05/29 13:22:22;;;;;;;4.97;1.47;;;21.30;10.50;;;;;;5056465;28;20445;-81
2022/05/29 13:25:01;;;;;;;4.33;1.40;;;21.40;12.60;;;;;;5056278;28;20454;-80
2022/05/29 13:27:32;;;;;;;5.53;1.20;;;20.90;12.80;;;;;;5056201;28;20465;-80
2022/05/29 13:30:02;;;;;;;4.40;1.03;;;20.50;15.20;;;;;;5055415;28;20489;-81
2022/05/29 13:32:31;;;;;;;6.33;1.40;;;20.40;14.00;;;;;;5055711;28;20456;-81
2022/05/29 13:35:37;;;;;;;5.30;1.40;;;20.00;14.20;;;;;;5055330;28;20453;-80
2022/05/29 13:38:04;;;;;;;8.93;1.17;;;20.30;12.40;;;;;;5055629;28;20520;-80
2022/05/29 13:40:48;;;;;;;3.60;0.70;;;19.30;15.00;;;;;;5054888;28;20855;-81
2022/05/29 13:43:38;;;;;;;4.50;1.20;;;19.70;12.00;;;;;;5055360;28;20880;-80
2022/05/29 13:46:18;;;;;;;4.00;0.90;;;19.60;15.80;;;;;;5055585;28;20454;-80
2022/05/29 13:49:19;;;;;;;5.20;1.10;;;19.10;11.60;;;;;;5054239;28;20457;-80
2022/05/29 13:51:47;;;;;;;4.27;0.90;;;19.30;12.40;;;;;;5084730;22;20473;-83
2022/05/29 13:54:24;;;;;;;5.17;1.07;;;19.20;13.50;;;;;;5063252;28;20453;-83
2022/05/29 13:57:07;;;;;;;3.80;0.90;;;19.10;15.00;;;;;;5065100;28;20442;-83